Time;durP1;ratioP1;P1;durP2;ratioP2;P2;SDS_P1;SDS_P2;PMS_P1;PMS_P2;Temp;Humidity;BMP_temperature;BMP_pressure;BME280_temperature;BME280_humidity;BME280_pressure;Samples;Min_cycle;Max_cycle;Signal;HPM_P1;HPM_P2
2023/07/27 00:00:27;;;;;;;1.87;1.00;;;;;;;16.66;56.92;98874.34;4482734;32;33449;-90
2023/07/27 00:02:55;;;;;;;3.67;1.15;;;;;;;16.48;57.15;98871.13;4482634;32;33635;-90
2023/07/27 00:05:22;;;;;;;3.05;0.90;;;;;;;16.58;56.72;98870.97;4481462;32;34593;-89
2023/07/27 00:07:50;;;;;;;2.20;1.00;;;;;;;16.51;56.57;98872.81;4481263;31;33714;-96
2023/07/27 00:10:32;;;;;;;4.22;1.23;;;;;;;16.32;57.97;98871.38;4481789;31;34049;-94
2023/07/27 00:12:59;;;;;;;1.92;0.90;;;;;;;16.02;58.42;98874.44;4480579;32;33672;-93
2023/07/27 00:15:27;;;;;;;3.92;1.10;;;;;;;15.85;59.13;98868.56;4481193;32;33221;-96
2023/07/27 00:17:55;;;;;;;3.75;1.30;;;;;;;15.96;59.00;98871.03;4482354;32;34893;-91
2023/07/27 00:20:22;;;;;;;4.12;1.50;;;;;;;16.06;58.93;98875.22;4455462;32;33008;-93
2023/07/27 00:22:50;;;;;;;3.30;1.50;;;;;;;15.91;60.03;98885.91;4482306;32;33820;-94
2023/07/27 00:25:18;;;;;;;7.18;2.30;;;;;;;15.30;62.52;98890.97;4481074;32;34646;-94
2023/07/27 00:27:45;;;;;;;5.62;1.50;;;;;;;15.34;62.55;98886.56;4482259;32;34443;-93
2023/07/27 00:30:12;;;;;;;4.07;1.40;;;;;;;15.38;62.31;98883.06;4467748;32;34150;-93
2023/07/27 00:32:40;;;;;;;4.53;1.87;;;;;;;15.21;63.21;98882.38;4482310;32;33380;-86
2023/07/27 00:35:08;;;;;;;3.62;1.90;;;;;;;15.48;62.49;98879.44;4482127;32;34501;-90
2023/07/27 00:37:35;;;;;;;12.27;1.95;;;;;;;15.26;63.56;98885.78;4482246;32;33797;-92
2023/07/27 00:40:04;;;;;;;3.87;1.70;;;;;;;15.78;61.92;98882.59;4481236;32;33676;-92
2023/07/27 00:42:32;;;;;;;3.50;1.80;;;;;;;15.69;61.96;98882.72;4482327;32;33437;-88
2023/07/27 00:44:59;;;;;;;3.55;1.90;;;;;;;15.45;62.97;98887.31;4480672;32;33913;-90
2023/07/27 00:47:27;;;;;;;5.87;1.80;;;;;;;15.20;63.76;98888.47;4481932;32;33785;-91
2023/07/27 00:49:54;;;;;;;3.08;1.70;;;;;;;15.06;64.33;98886.84;4480678;32;33846;-92
2023/07/27 00:52:23;;;;;;;3.17;1.80;;;;;;;14.92;64.95;98888.72;4482061;32;32968;-89
2023/07/27 00:54:54;;;;;;;3.72;1.90;;;;;;;15.01;64.61;98887.78;4467712;32;32842;-92
2023/07/27 00:57:21;;;;;;;6.28;2.00;;;;;;;15.14;64.28;98892.00;4481882;32;33420;-91
2023/07/27 00:59:49;;;;;;;5.32;1.95;;;;;;;15.04;64.53;98893.84;4481789;32;33698;-93
2023/07/27 01:02:17;;;;;;;3.92;2.03;;;;;;;14.85;64.98;98894.91;4467466;32;34399;-83
2023/07/27 01:04:45;;;;;;;3.92;1.95;;;;;;;14.72;65.32;98890.66;4480302;32;34209;-93
2023/07/27 01:07:14;;;;;;;3.72;2.05;;;;;;;14.73;65.40;98893.25;4480400;32;33775;-92
2023/07/27 01:09:42;;;;;;;4.07;2.03;;;;;;;15.16;64.00;98894.63;4481791;32;33513;-92
2023/07/27 01:12:31;;;;;;;3.15;1.70;;;;;;;15.13;63.96;98887.66;4480113;32;32575;-94
2023/07/27 01:15:08;;;;;;;3.62;2.10;;;;;;;14.81;64.61;98886.22;4480195;32;34512;-92
2023/07/27 01:17:49;;;;;;;3.47;2.17;;;;;;;14.95;63.97;98886.09;4467303;32;33769;-94
2023/07/27 01:20:30;;;;;;;3.12;1.77;;;;;;;14.83;64.58;98897.50;4480200;32;33467;-94
2023/07/27 01:23:35;;;;;;;3.40;1.90;;;;;;;14.73;64.51;98884.53;4481986;32;32556;-93
2023/07/27 01:26:51;;;;;;;3.53;1.70;;;;;;;14.41;65.18;98893.47;4482236;32;34089;-94
2023/07/27 01:29:31;;;;;;;4.45;1.90;;;;;;;14.75;64.13;98899.31;4482772;32;34198;-92
2023/07/27 01:32:00;;;;;;;2.92;1.50;;;;;;;15.18;62.28;98898.91;4470020;32;33304;-91
2023/07/27 01:34:31;;;;;;;2.95;1.80;;;;;;;14.76;63.76;98900.19;4456727;32;31647;-93
2023/07/27 01:37:04;;;;;;;5.85;2.20;;;;;;;14.94;63.25;98891.34;4469907;32;33624;-93
2023/07/27 01:39:35;;;;;;;2.33;1.42;;;;;;;15.15;62.43;98896.31;4482283;32;34822;-94
2023/07/27 01:42:03;;;;;;;4.10;1.80;;;;;;;14.96;63.19;98893.03;4482590;32;33179;-96
2023/07/27 01:44:32;;;;;;;2.70;1.60;;;;;;;15.16;62.59;98895.47;4469284;32;32661;-94
2023/07/27 01:47:00;;;;;;;4.90;1.60;;;;;;;15.11;62.52;98891.16;4482867;32;34775;-94
2023/07/27 01:49:28;;;;;;;2.78;1.60;;;;;;;15.37;61.93;98890.88;4482396;32;34079;-92
2023/07/27 01:51:57;;;;;;;3.47;1.77;;;;;;;14.94;63.33;98884.38;4482335;32;33684;-90
2023/07/27 01:54:26;;;;;;;4.80;1.90;;;;;;;15.17;62.01;98888.50;4482232;32;33530;-94
2023/07/27 01:56:54;;;;;;;4.70;1.98;;;;;;;15.09;62.49;98880.75;4482327;32;33583;-93
2023/07/27 01:59:24;;;;;;;3.28;1.87;;;;;;;14.89;62.83;98887.87;4482170;32;34815;-94
2023/07/27 02:01:52;;;;;;;5.30;1.80;;;;;;;15.00;62.78;98880.81;4482215;32;33451;-92
2023/07/27 02:04:20;;;;;;;3.15;2.00;;;;;;;14.92;63.17;98883.50;4469442;32;33136;-92
2023/07/27 02:06:51;;;;;;;5.40;1.80;;;;;;;14.98;62.71;98880.84;4469281;32;33652;-91
2023/07/27 02:09:19;;;;;;;3.97;1.90;;;;;;;14.86;63.59;98886.19;4469499;32;34490;-92
2023/07/27 02:11:49;;;;;;;3.78;1.60;;;;;;;15.17;62.49;98878.91;4483751;32;33296;-89
2023/07/27 02:14:58;;;;;;;3.95;2.22;;;;;;;14.95;62.61;98886.09;4481993;32;32853;-89
2023/07/27 02:17:33;;;;;;;3.35;1.70;;;;;;;14.87;62.72;98884.44;4472489;32;32404;-91
2023/07/27 02:20:02;;;;;;;3.28;1.67;;;;;;;14.73;63.57;98884.53;4482220;32;33946;-89
2023/07/27 02:22:30;;;;;;;3.28;2.08;;;;;;;14.85;62.50;98887.06;4482253;32;33867;-93
2023/07/27 02:24:57;;;;;;;3.17;1.77;;;;;;;14.50;64.08;98882.97;4469246;32;32681;-93
2023/07/27 02:27:25;;;;;;;4.82;1.55;;;;;;;14.79;63.12;98881.91;4482051;32;33824;-93
2023/07/27 02:29:53;;;;;;;3.12;1.60;;;;;;;14.83;62.75;98878.38;4483537;32;34900;-91
2023/07/27 02:32:21;;;;;;;3.20;1.60;;;;;;;14.69;63.41;98885.44;4482098;32;32945;-93
2023/07/27 02:34:49;;;;;;;3.30;1.67;;;;;;;14.32;64.62;98883.97;4468682;32;34154;-90
2023/07/27 02:37:16;;;;;;;4.55;1.90;;;;;;;14.72;63.23;98882.81;4483458;32;33945;-91
2023/07/27 02:39:44;;;;;;;3.92;1.60;;;;;;;14.76;63.44;98887.13;4481991;32;34814;-92
2023/07/27 02:42:11;;;;;;;4.55;2.10;;;;;;;14.86;62.79;98888.78;4482112;32;33403;-93
2023/07/27 02:44:41;;;;;;;4.10;2.00;;;;;;;14.42;64.02;98895.19;4483398;32;33191;-91
2023/07/27 02:47:08;;;;;;;4.18;1.90;;;;;;;14.73;62.87;98894.97;4482098;32;33300;-93
2023/07/27 02:49:36;;;;;;;4.55;1.87;;;;;;;14.68;63.30;98899.38;4482148;32;33169;-93
2023/07/27 02:52:04;;;;;;;3.47;1.85;;;;;;;14.21;65.22;98913.59;4469113;32;34303;-91
2023/07/27 02:54:31;;;;;;;4.32;1.73;;;;;;;14.69;63.48;98907.19;4483140;32;33871;-88
2023/07/27 02:56:59;;;;;;;3.75;1.87;;;;;;;14.66;63.41;98912.47;4483238;32;34635;-89
2023/07/27 02:59:27;;;;;;;4.62;2.08;;;;;;;14.89;62.52;98914.88;4482191;32;34382;-93
2023/07/27 03:01:55;;;;;;;3.53;1.90;;;;;;;14.87;62.34;98916.63;4456216;32;33086;-93
2023/07/27 03:04:23;;;;;;;4.03;1.70;;;;;;;14.17;64.55;98917.97;4482199;32;34024;-93
2023/07/27 03:06:51;;;;;;;4.75;2.00;;;;;;;14.57;63.33;98918.59;4455834;32;33263;-87
2023/07/27 03:09:20;;;;;;;4.37;1.83;;;;;;;14.42;63.75;98921.28;4482035;32;32547;-96
2023/07/27 03:11:49;;;;;;;3.60;1.80;;;;;;;14.57;63.57;98921.19;4481689;32;33816;-83
2023/07/27 03:14:17;;;;;;;4.10;2.20;;;;;;;13.82;66.38;98938.97;4482895;32;33460;-94
2023/07/27 03:16:44;;;;;;;4.37;2.25;;;;;;;14.28;64.82;98923.09;4468900;32;34200;-93
2023/07/27 03:19:12;;;;;;;4.18;2.05;;;;;;;14.06;65.20;98931.06;4483350;32;34777;-95
2023/07/27 03:21:48;;;;;;;3.40;1.95;;;;;;;14.53;63.96;98921.22;4482011;32;34152;-94
2023/07/27 03:24:17;;;;;;;3.55;1.98;;;;;;;14.40;64.46;98925.66;4469912;32;31849;-93
2023/07/27 03:26:45;;;;;;;4.28;2.08;;;;;;;14.42;63.85;98938.66;4468852;32;33924;-82
2023/07/27 03:29:12;;;;;;;4.43;2.20;;;;;;;14.43;63.86;98943.00;4482892;32;34395;-93
2023/07/27 03:31:40;;;;;;;3.10;1.95;;;;;;;14.40;64.15;98937.81;4468802;32;33927;-90
2023/07/27 03:34:08;;;;;;;3.15;1.70;;;;;;;14.57;63.63;98943.81;4481976;32;34273;-92
2023/07/27 03:36:35;;;;;;;2.50;1.65;;;;;;;14.56;63.64;98945.56;4482898;32;33667;-92
2023/07/27 03:39:03;;;;;;;3.95;2.12;;;;;;;14.50;63.63;98947.34;4468834;32;33526;-92
2023/07/27 03:41:31;;;;;;;3.70;1.90;;;;;;;14.28;64.41;98951.78;4468525;32;33792;-91
2023/07/27 03:43:59;;;;;;;4.78;1.98;;;;;;;14.39;63.95;98946.50;4481957;32;33965;-88
2023/07/27 03:46:26;;;;;;;5.15;1.92;;;;;;;14.33;64.13;98953.50;4481335;32;33913;-90
2023/07/27 03:48:55;;;;;;;3.60;1.90;;;;;;;14.70;63.39;98941.97;4482776;32;33615;-92
2023/07/27 03:51:22;;;;;;;4.03;2.00;;;;;;;14.54;63.92;98944.69;4482657;32;33180;-92
2023/07/27 03:53:51;;;;;;;3.20;1.98;;;;;;;14.19;64.94;98967.47;4481379;32;32629;-93
2023/07/27 03:56:30;;;;;;;3.97;2.30;;;;;;;14.16;65.45;98957.94;4481322;32;33991;-92
2023/07/27 03:58:58;;;;;;;3.80;1.77;;;;;;;14.29;65.09;98961.34;4482994;32;34286;-91
2023/07/27 04:01:26;;;;;;;4.72;2.00;;;;;;;14.87;62.92;98963.59;4468415;32;33021;-93
2023/07/27 04:03:54;;;;;;;3.67;1.98;;;;;;;14.78;63.23;98967.16;4482417;32;33849;-89
2023/07/27 04:06:22;;;;;;;3.62;2.15;;;;;;;14.82;62.52;98965.37;4481431;32;33294;-93
2023/07/27 04:08:49;;;;;;;4.37;2.10;;;;;;;14.89;62.82;98972.28;4481132;32;32915;-88
2023/07/27 04:11:17;;;;;;;4.53;1.73;;;;;;;14.76;62.91;98975.84;4482302;32;33114;-93
2023/07/27 04:13:45;;;;;;;4.25;1.95;;;;;;;15.03;62.61;98985.22;4468080;32;33403;-93
2023/07/27 04:16:12;;;;;;;4.78;2.15;;;;;;;15.28;60.75;98980.66;4482488;32;33679;-90
2023/07/27 04:18:40;;;;;;;3.37;1.70;;;;;;;15.01;62.02;98987.84;4482346;32;35180;-96
2023/07/27 04:21:17;;;;;;;3.55;1.80;;;;;;;14.72;63.46;98985.44;4481326;32;34830;-92
2023/07/27 04:23:44;;;;;;;3.67;1.83;;;;;;;15.06;62.85;98986.06;4482198;32;34384;-95
2023/07/27 04:26:12;;;;;;;4.10;1.87;;;;;;;15.32;61.49;98984.97;4467920;32;33067;-93
2023/07/27 04:28:39;;;;;;;4.45;1.65;;;;;;;15.38;61.24;98982.31;4482634;32;34792;-93
2023/07/27 04:31:07;;;;;;;4.03;1.98;;;;;;;15.50;60.53;98976.09;4480894;32;32677;-93
2023/07/27 04:33:35;;;;;;;3.67;1.90;;;;;;;15.98;59.24;98979.06;4481241;32;33380;-90
2023/07/27 04:36:02;;;;;;;6.65;2.17;;;;;;;16.24;58.67;98981.34;4482326;32;33853;-92
2023/07/27 04:38:30;;;;;;;3.30;1.70;;;;;;;16.33;57.83;98977.75;4467930;32;32623;-92
2023/07/27 04:40:58;;;;;;;3.08;1.62;;;;;;;16.86;56.56;98970.91;4480994;32;33497;-89
2023/07/27 04:43:26;;;;;;;3.50;1.85;;;;;;;16.89;56.46;98971.72;4480890;32;32766;-94
2023/07/27 04:45:53;;;;;;;4.47;2.17;;;;;;;17.44;54.77;98981.28;4480554;32;34547;-91
2023/07/27 04:48:21;;;;;;;2.67;1.40;;;;;;;17.63;53.88;98991.44;4480919;32;34522;-92
2023/07/27 04:50:48;;;;;;;3.25;1.65;;;;;;;17.56;54.51;98980.19;4482026;32;34410;-94
2023/07/27 04:53:16;;;;;;;3.75;1.73;;;;;;;17.98;53.22;98988.16;4467569;32;32251;-90
2023/07/27 04:55:44;;;;;;;4.05;1.75;;;;;;;18.34;52.01;98990.91;4454582;32;33801;-92
2023/07/27 04:58:11;;;;;;;2.78;1.45;;;;;;;18.24;52.59;98992.84;4481291;32;33851;-92
2023/07/27 05:00:39;;;;;;;3.53;1.60;;;;;;;18.27;52.16;98995.44;4482554;32;34379;-92
2023/07/27 05:03:06;;;;;;;2.92;1.40;;;;;;;18.40;51.96;99004.75;4482729;32;33430;-90
2023/07/27 05:05:37;;;;;;;3.78;1.75;;;;;;;18.46;51.72;99002.00;4469819;32;33730;-94
2023/07/27 05:08:20;;;;;;;2.87;1.48;;;;;;;18.14;52.50;99004.44;4458453;32;32887;-93
2023/07/27 05:10:50;;;;;;;2.33;1.20;;;;;;;18.78;51.39;99010.94;4483807;32;33690;-95
2023/07/27 05:13:17;;;;;;;4.20;1.50;;;;;;;19.57;50.63;99000.22;4469566;32;34338;-94
2023/07/27 05:15:45;;;;;;;3.10;1.48;;;;;;;19.37;49.83;99011.28;4484152;32;33595;-94
2023/07/27 05:18:14;;;;;;;4.35;1.87;;;;;;;18.89;50.46;99014.19;4482667;32;34813;-89
2023/07/27 05:20:42;;;;;;;6.50;1.95;;;;;;;18.58;51.31;99027.13;4483933;32;33365;-93
2023/07/27 05:23:10;;;;;;;4.32;1.50;;;;;;;18.68;51.55;99022.53;4482415;32;33403;-89
2023/07/27 05:25:37;;;;;;;5.07;1.55;;;;;;;19.15;50.86;99017.97;4482512;32;33448;-93
2023/07/27 05:28:05;;;;;;;4.93;1.60;;;;;;;19.24;50.37;99027.38;4469523;32;33448;-93
2023/07/27 05:30:33;;;;;;;3.78;1.48;;;;;;;18.93;50.33;99028.13;4484080;32;34373;-91
2023/07/27 05:33:00;;;;;;;5.00;1.60;;;;;;;18.52;51.98;99036.88;4482634;32;34472;-94
2023/07/27 05:35:28;;;;;;;4.20;1.40;;;;;;;18.97;51.24;99045.53;4482222;32;32786;-88
2023/07/27 05:37:56;;;;;;;4.70;1.45;;;;;;;18.96;51.04;99046.44;4483893;32;34641;-91
2023/07/27 05:40:24;;;;;;;3.12;1.70;;;;;;;18.81;51.81;99052.91;4483665;32;33448;-92
2023/07/27 05:42:51;;;;;;;2.60;1.62;;;;;;;18.67;52.17;99057.56;4469398;32;32555;-87
2023/07/27 05:45:19;;;;;;;2.85;1.30;;;;;;;19.12;50.65;99047.81;4483827;32;33791;-84
2023/07/27 05:47:47;;;;;;;3.95;1.80;;;;;;;18.31;52.62;99053.97;4483531;32;34860;-94
2023/07/27 05:50:20;;;;;;;4.80;1.50;;;;;;;18.45;52.83;99052.78;4469023;32;33210;-92
2023/07/27 05:52:48;;;;;;;4.22;1.40;;;;;;;18.79;51.69;99052.09;4482107;32;32837;-92
2023/07/27 05:55:16;;;;;;;3.25;1.87;;;;;;;19.29;50.68;99043.91;4483524;32;34649;-91
2023/07/27 05:57:43;;;;;;;3.83;1.58;;;;;;;19.32;50.24;99047.34;4469291;32;34179;-88
2023/07/27 06:00:11;;;;;;;2.45;1.60;;;;;;;19.47;50.26;99055.72;4482152;32;33124;-89
2023/07/27 06:02:39;;;;;;;3.65;1.90;;;;;;;19.58;49.92;99057.19;4483446;32;33647;-94
2023/07/27 06:05:07;;;;;;;5.10;1.65;;;;;;;19.09;51.58;99057.50;4482348;32;32937;-93
2023/07/27 06:07:35;;;;;;;3.33;1.48;;;;;;;19.03;51.04;99055.06;4469342;32;34197;-92
2023/07/27 06:10:02;;;;;;;3.80;1.77;;;;;;;19.06;51.29;99055.00;4482582;32;33533;-93
2023/07/27 06:12:30;;;;;;;4.70;1.85;;;;;;;18.78;52.13;99047.72;4456564;32;32278;-87
2023/07/27 06:14:58;;;;;;;7.70;1.85;;;;;;;18.75;53.36;99055.66;4483770;32;33684;-93
2023/07/27 06:17:27;;;;;;;2.50;1.48;;;;;;;19.09;52.39;99050.53;4482014;32;34906;-93
2023/07/27 06:19:55;;;;;;;3.42;1.70;;;;;;;18.94;53.48;99067.50;4483654;32;33034;-88
2023/07/27 06:22:23;;;;;;;3.35;1.40;;;;;;;19.06;52.02;99060.25;4483657;32;33560;-91
2023/07/27 06:24:50;;;;;;;3.17;1.67;;;;;;;19.72;50.79;99061.25;4482972;32;33815;-93
2023/07/27 06:27:18;;;;;;;4.43;1.60;;;;;;;19.72;50.68;99051.59;4483287;32;34001;-94
2023/07/27 06:29:46;;;;;;;4.75;1.73;;;;;;;19.49;51.05;99051.31;4469317;32;33514;-92
2023/07/27 06:32:15;;;;;;;3.17;1.60;;;;;;;19.05;50.89;99053.22;4483254;32;32555;-93
2023/07/27 06:34:50;;;;;;;5.32;1.70;;;;;;;18.91;51.44;99056.19;4469870;32;34008;-94
2023/07/27 06:37:18;;;;;;;4.30;1.65;;;;;;;19.19;50.88;99061.66;4469267;32;34057;-90
2023/07/27 06:39:46;;;;;;;6.65;1.83;;;;;;;19.79;49.07;99047.91;4483279;32;34388;-93
2023/07/27 06:42:14;;;;;;;4.40;1.60;;;;;;;19.59;50.02;99055.44;4483300;32;32655;-95
2023/07/27 06:44:42;;;;;;;3.30;1.60;;;;;;;19.74;49.21;99056.84;4483586;32;33921;-94
2023/07/27 06:47:09;;;;;;;2.72;1.25;;;;;;;19.64;49.07;99061.47;4482213;32;33650;-94
2023/07/27 06:49:37;;;;;;;3.65;1.70;;;;;;;19.68;49.62;99061.34;4468895;32;34361;-89
2023/07/27 06:52:08;;;;;;;4.75;1.80;;;;;;;20.54;47.71;99055.53;4481803;32;35047;-85
2023/07/27 06:54:39;;;;;;;5.30;1.65;;;;;;;20.55;48.15;99057.22;4483285;32;33844;-94
2023/07/27 06:57:09;;;;;;;6.12;1.80;;;;;;;20.67;47.90;99059.50;4482076;32;34021;-92
2023/07/27 06:59:37;;;;;;;2.87;1.62;;;;;;;20.52;47.56;99063.44;4481803;32;32743;-88
2023/07/27 07:02:05;;;;;;;3.95;1.77;;;;;;;20.87;46.80;99057.13;4483644;32;32687;-88
2023/07/27 07:04:33;;;;;;;3.08;1.60;;;;;;;20.35;47.15;99056.00;4481817;32;33839;-89
2023/07/27 07:07:06;;;;;;;2.25;1.25;;;;;;;20.61;47.68;99055.28;4481724;31;34093;-93
2023/07/27 07:09:35;;;;;;;7.10;1.70;;;;;;;20.64;47.31;99059.59;4469048;32;32354;-92
2023/07/27 07:12:04;;;;;;;4.10;1.60;;;;;;;21.12;46.39;99057.22;4469068;32;32747;-87
2023/07/27 07:14:32;;;;;;;3.62;1.48;;;;;;;20.90;47.69;99061.44;4483397;32;33500;-94
2023/07/27 07:17:00;;;;;;;3.45;1.70;;;;;;;20.89;47.18;99055.31;4481998;32;34136;-90
2023/07/27 07:19:28;;;;;;;4.65;1.70;;;;;;;21.33;45.86;99047.78;4483175;32;34396;-84
2023/07/27 07:21:55;;;;;;;3.83;1.55;;;;;;;20.97;45.64;99056.84;4482744;32;34230;-94
2023/07/27 07:24:23;;;;;;;7.15;1.70;;;;;;;21.46;45.15;99048.25;4481725;32;33397;-94
2023/07/27 07:26:57;;;;;;;3.00;1.60;;;;;;;21.54;44.23;99055.91;4468675;32;33376;-94
2023/07/27 07:29:26;;;;;;;3.45;1.70;;;;;;;21.34;45.33;99051.28;4469012;32;32937;-92
2023/07/27 07:31:54;;;;;;;3.10;1.40;;;;;;;21.38;44.78;99048.50;4481853;32;33365;-91
2023/07/27 07:34:21;;;;;;;3.70;1.52;;;;;;;21.60;44.71;99058.34;4483112;32;34073;-91
2023/07/27 07:36:49;;;;;;;3.35;1.75;;;;;;;21.41;44.74;99070.41;4481661;32;33850;-93
2023/07/27 07:39:17;;;;;;;2.83;1.40;;;;;;;21.37;44.36;99062.59;4481774;32;33748;-91
2023/07/27 07:41:44;;;;;;;3.58;1.58;;;;;;;20.77;45.98;99076.75;4468533;32;32462;-95
2023/07/27 07:44:12;;;;;;;3.60;1.55;;;;;;;21.01;45.29;99066.38;4482846;32;33737;-91
2023/07/27 07:46:40;;;;;;;5.30;1.42;;;;;;;21.31;45.04;99081.22;4481374;32;33008;-90
2023/07/27 07:49:08;;;;;;;3.75;1.60;;;;;;;21.46;45.58;99074.62;4482631;32;33958;-94
2023/07/27 07:51:35;;;;;;;4.82;1.70;;;;;;;22.07;44.49;99077.78;4468452;32;33090;-93
2023/07/27 07:54:07;;;;;;;3.37;1.45;;;;;;;21.86;44.36;99073.28;4482834;32;34380;-91
2023/07/27 07:56:35;;;;;;;2.60;1.35;;;;;;;22.01;44.42;99069.22;4481408;32;33868;-90
2023/07/27 07:59:03;;;;;;;2.62;1.45;;;;;;;21.72;44.04;99064.97;4468714;32;33593;-92
2023/07/27 08:01:30;;;;;;;10.10;1.60;;;;;;;21.10;45.91;99063.44;4468441;32;33342;-88
2023/07/27 08:03:58;;;;;;;3.45;1.40;;;;;;;21.18;45.71;99061.44;4482633;32;33525;-89
2023/07/27 08:06:29;;;;;;;3.53;1.55;;;;;;;21.45;44.31;99059.72;4482405;31;34733;-93
2023/07/27 08:08:57;;;;;;;3.70;1.67;;;;;;;21.45;44.21;99061.50;4482319;32;34776;-94
2023/07/27 08:11:35;;;;;;;2.90;1.37;;;;;;;21.23;45.37;99054.25;4481529;32;33615;-92
2023/07/27 08:14:03;;;;;;;4.25;1.58;;;;;;;21.67;45.00;99049.31;4481371;32;34339;-89
2023/07/27 08:16:31;;;;;;;3.97;1.80;;;;;;;21.64;44.15;99052.03;4482245;32;34721;-91
2023/07/27 08:19:02;;;;;;;3.12;1.60;;;;;;;22.31;43.06;99056.72;4468688;32;33222;-95
2023/07/27 08:21:29;;;;;;;4.95;1.67;;;;;;;22.22;43.81;99046.50;4468224;32;32925;-83
2023/07/27 08:23:58;;;;;;;3.65;1.50;;;;;;;22.39;42.62;99056.44;4482735;32;34392;-92
2023/07/27 08:26:28;;;;;;;5.35;1.75;;;;;;;22.08;43.22;99049.59;4468290;32;33817;-83
2023/07/27 08:28:57;;;;;;;4.80;1.67;;;;;;;22.01;43.43;99053.38;4482019;32;34270;-94
2023/07/27 08:31:25;;;;;;;4.32;1.67;;;;;;;21.54;44.23;99048.84;4481100;32;33586;-90
2023/07/27 08:33:54;;;;;;;5.30;1.80;;;;;;;21.48;43.82;99043.78;4483704;32;33546;-90
2023/07/27 08:36:21;;;;;;;3.28;1.30;;;;;;;21.33;44.13;99041.66;4484111;32;34865;-95
2023/07/27 08:38:49;;;;;;;3.15;1.27;;;;;;;21.96;44.04;99050.06;4484489;32;34906;-88
2023/07/27 08:41:16;;;;;;;3.22;1.58;;;;;;;22.00;43.45;99044.59;4484057;32;33494;-91
2023/07/27 08:43:45;;;;;;;4.20;1.42;;;;;;;21.72;43.31;99046.50;4483244;32;34862;-92
2023/07/27 08:46:12;;;;;;;3.22;1.48;;;;;;;21.58;43.92;99044.31;4483166;32;33677;-84
2023/07/27 08:48:41;;;;;;;3.65;1.60;;;;;;;21.70;42.91;99054.44;4483080;32;34546;-94
2023/07/27 08:51:08;;;;;;;3.65;1.50;;;;;;;21.74;43.39;99044.66;4482740;32;32856;-85
2023/07/27 08:53:36;;;;;;;3.70;1.73;;;;;;;21.78;43.63;99047.16;4485890;32;33992;-93
2023/07/27 08:56:04;;;;;;;2.55;1.37;;;;;;;21.56;43.48;99041.75;4485302;32;33284;-85
2023/07/27 08:58:32;;;;;;;2.78;1.10;;;;;;;21.84;44.09;99041.66;4483985;32;33797;-94
2023/07/27 09:01:09;;;;;;;3.67;1.60;;;;;;;22.15;42.21;99043.22;4470948;32;33232;-93
2023/07/27 09:03:42;;;;;;;3.30;1.40;;;;;;;22.50;42.47;99033.13;4482787;32;34007;-93
2023/07/27 09:06:10;;;;;;;4.07;1.33;;;;;;;22.88;41.68;99030.78;4483622;31;33729;-90
2023/07/27 09:08:37;;;;;;;3.65;1.30;;;;;;;22.42;42.25;99035.19;4484079;32;33920;-86
2023/07/27 09:11:07;;;;;;;2.78;1.35;;;;;;;22.99;40.93;99029.47;4483981;32;33749;-89
2023/07/27 09:13:36;;;;;;;3.30;1.50;;;;;;;22.94;40.33;99025.28;4482430;32;34819;-92
2023/07/27 09:16:06;;;;;;;4.82;1.17;;;;;;;22.34;40.80;99036.34;4482628;32;33816;-91
2023/07/27 09:18:38;;;;;;;4.93;1.20;;;;;;;22.79;41.11;99027.59;4482420;32;33659;-94
2023/07/27 09:21:07;;;;;;;2.85;1.30;;;;;;;22.97;40.25;99033.09;4482732;32;33584;-92
2023/07/27 09:23:36;;;;;;;3.28;1.02;;;;;;;23.09;38.19;99032.59;4483879;32;33878;-89
2023/07/27 09:26:05;;;;;;;3.40;1.05;;;;;;;22.92;39.09;99009.50;4482572;32;33946;-93
2023/07/27 09:28:33;;;;;;;6.03;1.40;;;;;;;22.92;38.62;99033.31;4482672;32;34340;-94
2023/07/27 09:31:02;;;;;;;3.72;1.42;;;;;;;22.93;38.86;99034.16;4484798;32;33015;-96
2023/07/27 09:33:31;;;;;;;3.33;1.12;;;;;;;22.81;38.89;99025.75;4482697;32;33894;-91
2023/07/27 09:35:59;;;;;;;4.12;1.40;;;;;;;22.90;39.30;99029.81;4483885;32;33969;-95
2023/07/27 09:38:27;;;;;;;4.20;1.30;;;;;;;22.90;41.39;99034.25;4484276;32;34583;-93
2023/07/27 09:40:55;;;;;;;3.20;1.25;;;;;;;22.93;40.53;99029.72;4484046;32;33365;-92
2023/07/27 09:43:26;;;;;;;3.05;1.30;;;;;;;23.20;40.33;99024.25;4469470;32;34642;-93
2023/07/27 09:46:00;;;;;;;5.28;1.45;;;;;;;23.10;39.76;99029.03;4469444;32;34029;-94
2023/07/27 09:48:28;;;;;;;3.35;1.33;;;;;;;22.56;39.00;99038.19;4482480;32;33875;-91
2023/07/27 09:50:58;;;;;;;3.78;1.30;;;;;;;23.48;38.38;99029.25;4483526;32;33347;-92
2023/07/27 09:53:29;;;;;;;3.25;1.33;;;;;;;23.18;39.47;99013.72;4483942;32;33300;-94
2023/07/27 09:55:58;;;;;;;3.28;1.40;;;;;;;23.10;39.81;99026.37;4469749;32;33171;-92
2023/07/27 09:58:27;;;;;;;1.90;1.02;;;;;;;23.41;40.26;99025.13;4482295;32;34248;-91
2023/07/27 10:00:55;;;;;;;6.55;1.40;;;;;;;23.33;41.09;99008.72;4483944;32;32796;-92
2023/07/27 10:03:23;;;;;;;4.05;1.40;;;;;;;23.78;39.88;99009.44;4482451;32;34523;-94
2023/07/27 10:05:51;;;;;;;4.40;1.15;;;;;;;23.54;38.96;99005.19;4482439;32;33208;-92
2023/07/27 10:08:19;;;;;;;4.25;1.33;;;;;;;23.30;39.76;99007.94;4483523;32;33808;-96
2023/07/27 10:10:53;;;;;;;3.30;1.73;;;;;;;23.73;37.39;99003.50;4469395;32;32814;-94
2023/07/27 10:13:23;;;;;;;3.10;1.42;;;;;;;23.86;38.64;98995.00;4482268;32;33453;-93
2023/07/27 10:16:00;;;;;;;3.40;1.35;;;;;;;23.68;39.05;99001.97;4482391;32;34042;-92
2023/07/27 10:18:28;;;;;;;2.60;1.10;;;;;;;23.72;39.17;99001.78;4482429;32;33565;-89
2023/07/27 10:21:15;;;;;;;3.40;1.30;;;;;;;23.67;38.59;99001.09;4482237;32;33146;-90
2023/07/27 10:24:00;;;;;;;3.60;1.45;;;;;;;24.05;37.41;98998.53;4482821;32;32496;-91
2023/07/27 10:26:52;;;;;;;3.25;1.27;;;;;;;24.12;37.70;99002.63;4482056;32;33998;-89
2023/07/27 10:29:22;;;;;;;5.43;1.15;;;;;;;23.55;38.00;98996.31;4475916;31;33182;-95
2023/07/27 10:32:06;;;;;;;2.17;1.00;;;;;;;23.29;38.67;98995.63;4482238;32;33368;-93
2023/07/27 10:34:35;;;;;;;2.30;1.02;;;;;;;23.70;38.27;98987.72;4469844;32;33782;-94
2023/07/27 10:37:10;;;;;;;2.70;1.10;;;;;;;23.44;37.38;98990.59;4483609;32;33682;-94
2023/07/27 10:39:47;;;;;;;4.68;1.30;;;;;;;24.01;38.35;98989.03;4483482;32;33820;-95
2023/07/27 10:42:16;;;;;;;3.05;1.25;;;;;;;23.71;37.68;98980.66;4483613;32;33288;-92
2023/07/27 10:44:48;;;;;;;3.97;1.48;;;;;;;23.86;37.72;98979.13;4483367;32;34039;-93
2023/07/27 10:47:32;;;;;;;3.55;1.10;;;;;;;23.81;36.80;98973.19;4482232;32;33067;-91
2023/07/27 10:50:00;;;;;;;2.55;0.98;;;;;;;24.14;36.74;98974.31;4483095;32;33912;-92
2023/07/27 10:52:34;;;;;;;3.35;1.30;;;;;;;24.19;37.70;98972.31;4483449;32;33222;-78
2023/07/27 10:55:03;;;;;;;3.50;1.08;;;;;;;24.20;36.16;98983.75;4483562;32;34223;-93
2023/07/27 10:57:32;;;;;;;2.90;1.23;;;;;;;24.05;36.80;98974.72;4482672;32;33835;-91
2023/07/27 11:00:01;;;;;;;2.28;1.10;;;;;;;24.14;36.11;98984.91;4468956;32;34171;-92
2023/07/27 11:02:34;;;;;;;2.00;1.05;;;;;;;24.72;36.28;98976.03;4482116;32;32811;-91
2023/07/27 11:05:08;;;;;;;3.30;1.17;;;;;;;24.32;35.72;98972.63;4483216;32;33810;-95
2023/07/27 11:07:44;;;;;;;5.20;1.10;;;;;;;24.51;35.73;98962.03;4469669;32;34031;-95
2023/07/27 11:10:13;;;;;;;4.20;1.30;;;;;;;24.59;36.11;98959.03;4481600;32;33828;-93
2023/07/27 11:12:52;;;;;;;4.55;1.20;;;;;;;25.04;35.77;98966.53;4483462;32;32999;-91
2023/07/27 11:15:21;;;;;;;3.97;1.67;;;;;;;24.65;36.01;98964.87;4468876;32;33882;-94
2023/07/27 11:17:50;;;;;;;2.97;1.27;;;;;;;24.27;37.12;98959.56;4483321;32;34148;-94
2023/07/27 11:20:20;;;;;;;3.12;1.05;;;;;;;24.63;36.75;98965.91;4483084;32;34342;-93
2023/07/27 11:22:49;;;;;;;3.33;1.33;;;;;;;24.99;34.42;98958.78;4482946;32;34136;-93
2023/07/27 11:25:16;;;;;;;3.83;1.37;;;;;;;24.54;34.90;98959.22;4482981;32;33891;-93
2023/07/27 11:27:48;;;;;;;3.10;1.42;;;;;;;24.80;35.01;98951.81;4481985;32;32690;-92
2023/07/27 11:30:17;;;;;;;3.47;1.30;;;;;;;24.70;35.55;98951.38;4469079;32;32814;-96
2023/07/27 11:32:59;;;;;;;8.15;1.20;;;;;;;24.75;35.82;98949.41;4469188;32;32770;-93
2023/07/27 11:35:27;;;;;;;3.97;1.00;;;;;;;24.61;35.63;98955.34;4481753;32;34614;-91
2023/07/27 11:37:55;;;;;;;2.95;1.23;;;;;;;24.69;35.49;98945.22;4483002;32;33385;-93
2023/07/27 11:40:23;;;;;;;2.85;1.05;;;;;;;24.72;34.82;98961.00;4481856;32;33307;-95
2023/07/27 11:42:51;;;;;;;4.93;1.35;;;;;;;25.10;34.29;98946.81;4482807;32;33116;-91
2023/07/27 11:45:19;;;;;;;3.83;1.30;;;;;;;24.95;33.41;98940.44;4483429;32;34324;-94